sensor_id;sensor_type;location;lat;lon;timestamp;P1;durP1;ratioP1;P2;durP2;ratioP2
15528;SDS011;7866;52.280;9.500;2023-05-07T00:01:12;25.70;;;23.00;;
15528;SDS011;7866;52.280;9.500;2023-05-07T00:06:14;26.00;;;23.30;;
15528;SDS011;7866;52.280;9.500;2023-05-07T00:11:17;24.30;;;21.70;;
15528;SDS011;7866;52.280;9.500;2023-05-07T00:16:19;27.67;;;24.67;;
15528;SDS011;7866;52.280;9.500;2023-05-07T00:21:20;29.03;;;24.57;;
15528;SDS011;7866;52.280;9.500;2023-05-07T00:26:23;28.03;;;25.00;;
15528;SDS011;7866;52.280;9.500;2023-05-07T00:31:25;32.70;;;25.80;;
15528;SDS011;7866;52.280;9.500;2023-05-07T00:36:27;29.43;;;25.60;;
15528;SDS011;7866;52.280;9.500;2023-05-07T00:41:30;27.40;;;24.43;;
15528;SDS011;7866;52.280;9.500;2023-05-07T00:46:32;27.90;;;23.83;;
15528;SDS011;7866;52.280;9.500;2023-05-07T00:51:34;27.87;;;23.57;;
15528;SDS011;7866;52.280;9.500;2023-05-07T00:56:37;26.03;;;23.10;;
15528;SDS011;7866;52.280;9.500;2023-05-07T01:01:39;27.83;;;22.93;;
15528;SDS011;7866;52.280;9.500;2023-05-07T01:06:41;28.33;;;25.03;;
15528;SDS011;7866;52.280;9.500;2023-05-07T01:11:44;28.40;;;23.33;;
15528;SDS011;7866;52.280;9.500;2023-05-07T01:16:46;30.33;;;23.70;;
15528;SDS011;7866;52.280;9.500;2023-05-07T01:21:48;27.47;;;23.37;;
15528;SDS011;7866;52.280;9.500;2023-05-07T01:26:53;27.60;;;23.17;;
15528;SDS011;7866;52.280;9.500;2023-05-07T01:31:55;28.07;;;23.50;;
15528;SDS011;7866;52.280;9.500;2023-05-07T01:36:59;28.70;;;22.93;;
15528;SDS011;7866;52.280;9.500;2023-05-07T01:42:04;28.70;;;22.30;;
15528;SDS011;7866;52.280;9.500;2023-05-07T01:47:07;28.07;;;23.17;;
15528;SDS011;7866;52.280;9.500;2023-05-07T01:52:09;29.23;;;23.37;;
15528;SDS011;7866;52.280;9.500;2023-05-07T01:57:13;31.47;;;25.33;;
15528;SDS011;7866;52.280;9.500;2023-05-07T02:02:14;30.20;;;24.37;;
15528;SDS011;7866;52.280;9.500;2023-05-07T02:07:22;28.77;;;22.87;;
15528;SDS011;7866;52.280;9.500;2023-05-07T02:12:38;30.93;;;23.50;;
15528;SDS011;7866;52.280;9.500;2023-05-07T02:23:00;29.60;;;23.93;;
15528;SDS011;7866;52.280;9.500;2023-05-07T02:28:04;32.33;;;24.13;;
15528;SDS011;7866;52.280;9.500;2023-05-07T02:33:05;30.63;;;23.73;;
15528;SDS011;7866;52.280;9.500;2023-05-07T02:38:08;27.43;;;21.27;;
15528;SDS011;7866;52.280;9.500;2023-05-07T02:43:12;23.50;;;19.87;;
15528;SDS011;7866;52.280;9.500;2023-05-07T02:48:13;24.17;;;19.53;;
15528;SDS011;7866;52.280;9.500;2023-05-07T02:53:15;23.17;;;18.77;;
15528;SDS011;7866;52.280;9.500;2023-05-07T02:58:18;22.80;;;18.13;;
15528;SDS011;7866;52.280;9.500;2023-05-07T03:03:20;23.67;;;17.47;;
15528;SDS011;7866;52.280;9.500;2023-05-07T03:08:21;21.27;;;17.87;;
15528;SDS011;7866;52.280;9.500;2023-05-07T03:13:24;20.53;;;16.53;;
15528;SDS011;7866;52.280;9.500;2023-05-07T03:18:44;19.40;;;17.00;;
15528;SDS011;7866;52.280;9.500;2023-05-07T03:23:46;18.40;;;16.37;;
15528;SDS011;7866;52.280;9.500;2023-05-07T03:28:49;18.20;;;16.13;;
15528;SDS011;7866;52.280;9.500;2023-05-07T03:33:51;18.57;;;16.03;;
15528;SDS011;7866;52.280;9.500;2023-05-07T03:38:53;17.53;;;15.63;;
15528;SDS011;7866;52.280;9.500;2023-05-07T03:43:56;19.53;;;17.43;;
15528;SDS011;7866;52.280;9.500;2023-05-07T03:48:58;18.10;;;16.30;;
15528;SDS011;7866;52.280;9.500;2023-05-07T03:53:59;21.00;;;18.73;;
15528;SDS011;7866;52.280;9.500;2023-05-07T03:59:03;19.90;;;17.33;;
15528;SDS011;7866;52.280;9.500;2023-05-07T04:04:04;22.40;;;19.60;;
15528;SDS011;7866;52.280;9.500;2023-05-07T04:09:06;22.97;;;19.67;;
15528;SDS011;7866;52.280;9.500;2023-05-07T04:14:09;22.47;;;19.37;;
15528;SDS011;7866;52.280;9.500;2023-05-07T04:19:11;20.60;;;18.57;;
15528;SDS011;7866;52.280;9.500;2023-05-07T04:24:12;20.63;;;18.30;;
15528;SDS011;7866;52.280;9.500;2023-05-07T04:29:15;21.13;;;18.00;;
15528;SDS011;7866;52.280;9.500;2023-05-07T04:34:17;19.40;;;17.30;;
15528;SDS011;7866;52.280;9.500;2023-05-07T04:39:18;22.63;;;18.43;;
15528;SDS011;7866;52.280;9.500;2023-05-07T04:44:21;19.73;;;17.70;;
15528;SDS011;7866;52.280;9.500;2023-05-07T04:49:23;21.40;;;18.53;;
15528;SDS011;7866;52.280;9.500;2023-05-07T04:54:24;19.83;;;17.67;;
15528;SDS011;7866;52.280;9.500;2023-05-07T04:59:28;18.63;;;16.73;;
15528;SDS011;7866;52.280;9.500;2023-05-07T05:04:29;19.43;;;16.37;;
15528;SDS011;7866;52.280;9.500;2023-05-07T05:09:31;19.50;;;17.17;;
15528;SDS011;7866;52.280;9.500;2023-05-07T05:14:34;18.97;;;15.17;;
15528;SDS011;7866;52.280;9.500;2023-05-07T05:19:36;16.57;;;14.87;;
15528;SDS011;7866;52.280;9.500;2023-05-07T05:24:38;16.47;;;14.73;;
15528;SDS011;7866;52.280;9.500;2023-05-07T05:29:41;16.23;;;14.63;;
15528;SDS011;7866;52.280;9.500;2023-05-07T05:34:42;15.63;;;14.03;;
15528;SDS011;7866;52.280;9.500;2023-05-07T05:39:44;17.40;;;14.33;;
15528;SDS011;7866;52.280;9.500;2023-05-07T05:44:48;15.33;;;13.73;;
15528;SDS011;7866;52.280;9.500;2023-05-07T05:49:49;16.90;;;14.40;;
15528;SDS011;7866;52.280;9.500;2023-05-07T05:54:51;15.70;;;13.93;;
15528;SDS011;7866;52.280;9.500;2023-05-07T05:59:54;15.47;;;13.87;;
15528;SDS011;7866;52.280;9.500;2023-05-07T06:04:56;14.10;;;12.60;;
15528;SDS011;7866;52.280;9.500;2023-05-07T06:09:58;13.20;;;11.83;;
15528;SDS011;7866;52.280;9.500;2023-05-07T06:15:00;13.10;;;11.80;;
15528;SDS011;7866;52.280;9.500;2023-05-07T06:20:02;12.77;;;11.47;;
15528;SDS011;7866;52.280;9.500;2023-05-07T06:25:05;13.20;;;11.27;;
15528;SDS011;7866;52.280;9.500;2023-05-07T06:30:09;11.83;;;10.63;;
15528;SDS011;7866;52.280;9.500;2023-05-07T06:35:10;12.03;;;10.73;;
15528;SDS011;7866;52.280;9.500;2023-05-07T06:40:12;10.27;;;9.37;;
15528;SDS011;7866;52.280;9.500;2023-05-07T06:45:15;10.40;;;9.33;;
15528;SDS011;7866;52.280;9.500;2023-05-07T06:50:17;9.60;;;8.70;;
15528;SDS011;7866;52.280;9.500;2023-05-07T06:55:19;9.57;;;8.67;;
15528;SDS011;7866;52.280;9.500;2023-05-07T07:00:22;9.40;;;8.50;;
15528;SDS011;7866;52.280;9.500;2023-05-07T07:05:23;8.80;;;8.00;;
15528;SDS011;7866;52.280;9.500;2023-05-07T07:10:25;9.53;;;8.63;;
15528;SDS011;7866;52.280;9.500;2023-05-07T07:15:28;9.60;;;8.57;;
15528;SDS011;7866;52.280;9.500;2023-05-07T07:20:30;9.47;;;8.53;;
15528;SDS011;7866;52.280;9.500;2023-05-07T07:25:31;8.97;;;8.07;;
15528;SDS011;7866;52.280;9.500;2023-05-07T07:30:35;7.97;;;7.17;;
15528;SDS011;7866;52.280;9.500;2023-05-07T07:35:36;8.87;;;8.00;;
15528;SDS011;7866;52.280;9.500;2023-05-07T07:40:38;7.90;;;7.20;;
15528;SDS011;7866;52.280;9.500;2023-05-07T07:45:41;7.77;;;7.07;;
15528;SDS011;7866;52.280;9.500;2023-05-07T07:50:43;7.00;;;6.40;;
15528;SDS011;7866;52.280;9.500;2023-05-07T07:55:45;7.47;;;6.87;;
15528;SDS011;7866;52.280;9.500;2023-05-07T08:00:48;8.07;;;7.27;;
15528;SDS011;7866;52.280;9.500;2023-05-07T08:05:49;7.73;;;6.93;;
15528;SDS011;7866;52.280;9.500;2023-05-07T08:10:51;7.47;;;6.73;;
15528;SDS011;7866;52.280;9.500;2023-05-07T08:15:54;7.70;;;7.00;;
15528;SDS011;7866;52.280;9.500;2023-05-07T08:20:55;7.47;;;6.73;;
15528;SDS011;7866;52.280;9.500;2023-05-07T08:25:57;8.13;;;7.33;;
15528;SDS011;7866;52.280;9.500;2023-05-07T08:31:00;7.73;;;7.03;;
15528;SDS011;7866;52.280;9.500;2023-05-07T08:36:02;7.73;;;7.03;;
15528;SDS011;7866;52.280;9.500;2023-05-07T08:41:04;8.40;;;7.07;;
15528;SDS011;7866;52.280;9.500;2023-05-07T08:46:09;7.03;;;6.40;;
15528;SDS011;7866;52.280;9.500;2023-05-07T08:51:12;7.57;;;6.93;;
15528;SDS011;7866;52.280;9.500;2023-05-07T08:56:14;7.60;;;6.90;;
15528;SDS011;7866;52.280;9.500;2023-05-07T09:01:18;9.67;;;8.77;;
15528;SDS011;7866;52.280;9.500;2023-05-07T09:06:20;10.53;;;9.63;;
15528;SDS011;7866;52.280;9.500;2023-05-07T09:11:22;10.47;;;9.57;;
15528;SDS011;7866;52.280;9.500;2023-05-07T09:16:26;10.57;;;9.57;;
15528;SDS011;7866;52.280;9.500;2023-05-07T09:21:30;10.23;;;9.30;;
15528;SDS011;7866;52.280;9.500;2023-05-07T09:26:32;10.40;;;9.50;;
15528;SDS011;7866;52.280;9.500;2023-05-07T09:31:37;10.30;;;9.40;;
15528;SDS011;7866;52.280;9.500;2023-05-07T09:36:39;10.03;;;9.13;;
15528;SDS011;7866;52.280;9.500;2023-05-07T09:41:44;8.97;;;8.10;;
15528;SDS011;7866;52.280;9.500;2023-05-07T09:46:49;9.00;;;8.30;;
15528;SDS011;7866;52.280;9.500;2023-05-07T09:51:55;10.20;;;9.20;;
15528;SDS011;7866;52.280;9.500;2023-05-07T09:56:57;9.20;;;8.23;;
15528;SDS011;7866;52.280;9.500;2023-05-07T10:02:04;8.80;;;8.00;;
15528;SDS011;7866;52.280;9.500;2023-05-07T10:07:06;9.57;;;8.63;;
15528;SDS011;7866;52.280;9.500;2023-05-07T10:12:09;9.40;;;8.53;;
15528;SDS011;7866;52.280;9.500;2023-05-07T10:17:12;10.30;;;9.17;;
15528;SDS011;7866;52.280;9.500;2023-05-07T10:22:16;10.27;;;9.37;;
15528;SDS011;7866;52.280;9.500;2023-05-07T10:27:19;11.00;;;10.00;;
15528;SDS011;7866;52.280;9.500;2023-05-07T10:32:30;11.33;;;10.27;;
15528;SDS011;7866;52.280;9.500;2023-05-07T10:37:38;11.00;;;10.00;;
15528;SDS011;7866;52.280;9.500;2023-05-07T10:42:52;11.63;;;10.60;;
15528;SDS011;7866;52.280;9.500;2023-05-07T10:48:12;11.50;;;10.50;;
15528;SDS011;7866;52.280;9.500;2023-05-07T10:53:24;12.10;;;11.00;;
15528;SDS011;7866;52.280;9.500;2023-05-07T10:58:29;11.60;;;10.60;;
15528;SDS011;7866;52.280;9.500;2023-05-07T11:03:34;9.93;;;9.13;;
15528;SDS011;7866;52.280;9.500;2023-05-07T11:08:55;11.43;;;10.43;;
15528;SDS011;7866;52.280;9.500;2023-05-07T11:13:57;11.03;;;10.00;;
15528;SDS011;7866;52.280;9.500;2023-05-07T11:19:00;10.60;;;9.70;;
15528;SDS011;7866;52.280;9.500;2023-05-07T11:24:02;11.03;;;10.03;;
15528;SDS011;7866;52.280;9.500;2023-05-07T11:29:08;9.90;;;9.07;;
15528;SDS011;7866;52.280;9.500;2023-05-07T11:34:13;9.93;;;8.80;;
15528;SDS011;7866;52.280;9.500;2023-05-07T11:39:26;10.43;;;9.47;;
15528;SDS011;7866;52.280;9.500;2023-05-07T11:44:42;9.10;;;8.33;;
15528;SDS011;7866;52.280;9.500;2023-05-07T11:49:47;9.90;;;9.07;;
15528;SDS011;7866;52.280;9.500;2023-05-07T11:54:50;10.13;;;9.17;;
15528;SDS011;7866;52.280;9.500;2023-05-07T11:59:52;9.83;;;9.03;;
15528;SDS011;7866;52.280;9.500;2023-05-07T12:04:56;10.33;;;8.60;;
15528;SDS011;7866;52.280;9.500;2023-05-07T12:09:57;11.13;;;10.13;;
15528;SDS011;7866;52.280;9.500;2023-05-07T12:14:59;11.73;;;9.67;;
15528;SDS011;7866;52.280;9.500;2023-05-07T12:20:02;9.90;;;8.90;;
15528;SDS011;7866;52.280;9.500;2023-05-07T12:25:05;9.10;;;8.30;;
15528;SDS011;7866;52.280;9.500;2023-05-07T12:30:09;8.13;;;7.43;;
15528;SDS011;7866;52.280;9.500;2023-05-07T12:35:14;7.22;;;6.63;;
15528;SDS011;7866;52.280;9.500;2023-05-07T12:40:15;8.38;;;7.57;;
15528;SDS011;7866;52.280;9.500;2023-05-07T12:45:17;8.05;;;7.28;;
15528;SDS011;7866;52.280;9.500;2023-05-07T12:50:20;8.18;;;7.47;;
15528;SDS011;7866;52.280;9.500;2023-05-07T12:55:22;8.85;;;7.95;;
15528;SDS011;7866;52.280;9.500;2023-05-07T13:00:33;7.80;;;7.17;;
15528;SDS011;7866;52.280;9.500;2023-05-07T13:05:37;8.27;;;7.57;;
15528;SDS011;7866;52.280;9.500;2023-05-07T13:10:40;7.07;;;6.38;;
15528;SDS011;7866;52.280;9.500;2023-05-07T13:15:41;7.57;;;6.93;;
15528;SDS011;7866;52.280;9.500;2023-05-07T13:20:44;7.50;;;6.90;;
15528;SDS011;7866;52.280;9.500;2023-05-07T13:25:46;7.15;;;6.45;;
15528;SDS011;7866;52.280;9.500;2023-05-07T13:30:48;6.70;;;5.97;;
15528;SDS011;7866;52.280;9.500;2023-05-07T13:35:53;7.60;;;6.70;;
15528;SDS011;7866;52.280;9.500;2023-05-07T13:40:57;8.40;;;7.70;;
15528;SDS011;7866;52.280;9.500;2023-05-07T13:45:58;9.15;;;8.25;;
15528;SDS011;7866;52.280;9.500;2023-05-07T13:51:02;8.88;;;8.13;;
15528;SDS011;7866;52.280;9.500;2023-05-07T13:56:04;9.57;;;8.68;;
15528;SDS011;7866;52.280;9.500;2023-05-07T14:01:24;9.27;;;8.48;;
15528;SDS011;7866;52.280;9.500;2023-05-07T14:06:27;9.65;;;8.70;;
15528;SDS011;7866;52.280;9.500;2023-05-07T14:11:28;9.30;;;8.60;;
15528;SDS011;7866;52.280;9.500;2023-05-07T14:16:30;9.48;;;8.68;;
15528;SDS011;7866;52.280;9.500;2023-05-07T14:21:33;9.27;;;8.45;;
15528;SDS011;7866;52.280;9.500;2023-05-07T14:26:35;8.43;;;7.82;;
15528;SDS011;7866;52.280;9.500;2023-05-07T14:31:36;8.85;;;8.15;;
15528;SDS011;7866;52.280;9.500;2023-05-07T14:36:39;9.27;;;8.48;;
15528;SDS011;7866;52.280;9.500;2023-05-07T14:41:41;8.73;;;7.95;;
15528;SDS011;7866;52.280;9.500;2023-05-07T14:46:43;9.35;;;8.48;;
15528;SDS011;7866;52.280;9.500;2023-05-07T14:51:46;8.93;;;8.15;;
15528;SDS011;7866;52.280;9.500;2023-05-07T14:56:48;8.65;;;7.85;;
15528;SDS011;7866;52.280;9.500;2023-05-07T15:01:50;8.32;;;7.72;;
15528;SDS011;7866;52.280;9.500;2023-05-07T15:06:53;8.40;;;7.70;;
15528;SDS011;7866;52.280;9.500;2023-05-07T15:11:56;8.85;;;8.00;;
15528;SDS011;7866;52.280;9.500;2023-05-07T15:16:57;10.23;;;8.25;;
15528;SDS011;7866;52.280;9.500;2023-05-07T15:22:00;8.48;;;7.55;;
15528;SDS011;7866;52.280;9.500;2023-05-07T15:27:02;9.48;;;8.65;;
15528;SDS011;7866;52.280;9.500;2023-05-07T15:32:04;9.75;;;8.88;;
15528;SDS011;7866;52.280;9.500;2023-05-07T15:37:08;9.70;;;8.95;;
15528;SDS011;7866;52.280;9.500;2023-05-07T15:42:09;9.90;;;8.98;;
15528;SDS011;7866;52.280;9.500;2023-05-07T15:47:11;14.18;;;9.77;;
15528;SDS011;7866;52.280;9.500;2023-05-07T15:52:15;10.15;;;9.25;;
15528;SDS011;7866;52.280;9.500;2023-05-07T15:57:17;10.40;;;9.40;;
15528;SDS011;7866;52.280;9.500;2023-05-07T16:02:18;10.38;;;9.40;;
15528;SDS011;7866;52.280;9.500;2023-05-07T16:07:22;9.00;;;8.27;;
15528;SDS011;7866;52.280;9.500;2023-05-07T16:12:23;8.68;;;7.78;;
15528;SDS011;7866;52.280;9.500;2023-05-07T16:17:25;8.63;;;7.82;;
15528;SDS011;7866;52.280;9.500;2023-05-07T16:22:28;9.15;;;8.35;;
15528;SDS011;7866;52.280;9.500;2023-05-07T16:27:30;8.93;;;8.13;;
15528;SDS011;7866;52.280;9.500;2023-05-07T16:32:32;10.00;;;9.13;;
15528;SDS011;7866;52.280;9.500;2023-05-07T16:37:36;9.27;;;8.48;;
15528;SDS011;7866;52.280;9.500;2023-05-07T16:42:40;9.40;;;8.60;;
15528;SDS011;7866;52.280;9.500;2023-05-07T16:47:42;10.13;;;9.23;;
15528;SDS011;7866;52.280;9.500;2023-05-07T16:52:45;9.15;;;8.27;;
15528;SDS011;7866;52.280;9.500;2023-05-07T16:57:47;9.45;;;8.65;;
15528;SDS011;7866;52.280;9.500;2023-05-07T17:02:48;9.13;;;8.43;;
15528;SDS011;7866;52.280;9.500;2023-05-07T17:07:51;9.50;;;8.70;;
15528;SDS011;7866;52.280;9.500;2023-05-07T17:12:54;9.50;;;8.70;;
15528;SDS011;7866;52.280;9.500;2023-05-07T17:17:56;10.67;;;9.77;;
15528;SDS011;7866;52.280;9.500;2023-05-07T17:22:58;9.90;;;9.00;;
15528;SDS011;7866;52.280;9.500;2023-05-07T17:28:00;9.13;;;8.33;;
15528;SDS011;7866;52.280;9.500;2023-05-07T17:33:02;10.00;;;9.10;;
15528;SDS011;7866;52.280;9.500;2023-05-07T17:38:05;9.00;;;8.20;;
15528;SDS011;7866;52.280;9.500;2023-05-07T17:43:07;9.57;;;8.70;;
15528;SDS011;7866;52.280;9.500;2023-05-07T17:48:09;9.20;;;8.40;;
15528;SDS011;7866;52.280;9.500;2023-05-07T17:53:12;9.03;;;8.23;;
15528;SDS011;7866;52.280;9.500;2023-05-07T17:58:15;9.37;;;8.57;;
15528;SDS011;7866;52.280;9.500;2023-05-07T18:03:16;9.20;;;8.30;;
15528;SDS011;7866;52.280;9.500;2023-05-07T18:08:19;7.97;;;7.37;;
15528;SDS011;7866;52.280;9.500;2023-05-07T18:13:21;8.23;;;7.53;;
15528;SDS011;7866;52.280;9.500;2023-05-07T18:18:23;7.90;;;7.30;;
15528;SDS011;7866;52.280;9.500;2023-05-07T18:23:28;8.47;;;6.90;;
15528;SDS011;7866;52.280;9.500;2023-05-07T18:28:30;7.47;;;6.87;;
15528;SDS011;7866;52.280;9.500;2023-05-07T18:33:32;6.90;;;6.30;;
15528;SDS011;7866;52.280;9.500;2023-05-07T18:38:35;7.10;;;6.43;;
15528;SDS011;7866;52.280;9.500;2023-05-07T18:43:37;7.67;;;6.83;;
15528;SDS011;7866;52.280;9.500;2023-05-07T18:48:39;7.40;;;6.80;;
15528;SDS011;7866;52.280;9.500;2023-05-07T18:53:42;7.00;;;6.40;;
15528;SDS011;7866;52.280;9.500;2023-05-07T18:58:44;6.93;;;6.33;;
15528;SDS011;7866;52.280;9.500;2023-05-07T19:03:46;6.90;;;6.33;;
15528;SDS011;7866;52.280;9.500;2023-05-07T19:08:49;7.00;;;6.40;;
15528;SDS011;7866;52.280;9.500;2023-05-07T19:13:50;6.93;;;6.33;;
15528;SDS011;7866;52.280;9.500;2023-05-07T19:18:52;6.97;;;6.37;;
15528;SDS011;7866;52.280;9.500;2023-05-07T19:23:55;6.60;;;6.07;;
15528;SDS011;7866;52.280;9.500;2023-05-07T19:28:57;6.37;;;5.87;;
15528;SDS011;7866;52.280;9.500;2023-05-07T19:33:58;6.70;;;6.10;;
15528;SDS011;7866;52.280;9.500;2023-05-07T19:39:02;6.80;;;6.30;;
15528;SDS011;7866;52.280;9.500;2023-05-07T19:44:03;6.83;;;6.33;;
15528;SDS011;7866;52.280;9.500;2023-05-07T19:49:05;7.27;;;6.07;;
15528;SDS011;7866;52.280;9.500;2023-05-07T19:54:08;6.37;;;5.73;;
15528;SDS011;7866;52.280;9.500;2023-05-07T19:59:10;6.37;;;5.87;;
15528;SDS011;7866;52.280;9.500;2023-05-07T20:04:11;6.00;;;5.50;;
15528;SDS011;7866;52.280;9.500;2023-05-07T20:09:14;6.63;;;5.97;;
15528;SDS011;7866;52.280;9.500;2023-05-07T20:14:16;6.43;;;5.87;;
15528;SDS011;7866;52.280;9.500;2023-05-07T20:19:17;7.47;;;6.77;;
15528;SDS011;7866;52.280;9.500;2023-05-07T20:24:20;6.80;;;6.20;;
15528;SDS011;7866;52.280;9.500;2023-05-07T20:29:22;5.90;;;5.40;;
15528;SDS011;7866;52.280;9.500;2023-05-07T20:34:24;6.63;;;6.10;;
15528;SDS011;7866;52.280;9.500;2023-05-07T20:39:27;6.17;;;5.67;;
15528;SDS011;7866;52.280;9.500;2023-05-07T20:44:31;5.80;;;5.37;;
15528;SDS011;7866;52.280;9.500;2023-05-07T20:49:33;5.53;;;5.03;;
15528;SDS011;7866;52.280;9.500;2023-05-07T20:54:36;6.20;;;5.20;;
15528;SDS011;7866;52.280;9.500;2023-05-07T20:59:39;5.90;;;5.40;;
15528;SDS011;7866;52.280;9.500;2023-05-07T21:04:41;5.03;;;4.63;;
15528;SDS011;7866;52.280;9.500;2023-05-07T21:09:44;5.83;;;5.43;;
15528;SDS011;7866;52.280;9.500;2023-05-07T21:14:46;5.00;;;4.50;;
15528;SDS011;7866;52.280;9.500;2023-05-07T21:19:48;4.77;;;4.47;;
15528;SDS011;7866;52.280;9.500;2023-05-07T21:24:52;4.97;;;4.57;;
15528;SDS011;7866;52.280;9.500;2023-05-07T21:29:55;4.80;;;4.40;;
15528;SDS011;7866;52.280;9.500;2023-05-07T21:35:04;4.20;;;3.90;;
15528;SDS011;7866;52.280;9.500;2023-05-07T21:40:08;5.27;;;4.87;;
15528;SDS011;7866;52.280;9.500;2023-05-07T21:45:10;4.83;;;4.43;;
15528;SDS011;7866;52.280;9.500;2023-05-07T21:50:13;4.30;;;4.00;;
15528;SDS011;7866;52.280;9.500;2023-05-07T21:55:17;4.70;;;4.33;;
15528;SDS011;7866;52.280;9.500;2023-05-07T22:00:19;4.43;;;4.13;;
15528;SDS011;7866;52.280;9.500;2023-05-07T22:05:21;3.90;;;3.60;;
15528;SDS011;7866;52.280;9.500;2023-05-07T22:10:24;4.37;;;3.90;;
15528;SDS011;7866;52.280;9.500;2023-05-07T22:15:26;3.63;;;3.33;;
15528;SDS011;7866;52.280;9.500;2023-05-07T22:20:27;3.67;;;3.47;;
15528;SDS011;7866;52.280;9.500;2023-05-07T22:25:32;4.43;;;3.80;;
15528;SDS011;7866;52.280;9.500;2023-05-07T22:30:34;4.40;;;3.70;;
15528;SDS011;7866;52.280;9.500;2023-05-07T22:35:36;4.13;;;3.73;;
15528;SDS011;7866;52.280;9.500;2023-05-07T22:40:39;4.07;;;3.77;;
15528;SDS011;7866;52.280;9.500;2023-05-07T22:45:41;3.70;;;3.50;;
15528;SDS011;7866;52.280;9.500;2023-05-07T22:50:42;4.30;;;3.90;;
15528;SDS011;7866;52.280;9.500;2023-05-07T22:55:45;4.00;;;3.70;;
15528;SDS011;7866;52.280;9.500;2023-05-07T23:00:47;3.97;;;3.67;;
15528;SDS011;7866;52.280;9.500;2023-05-07T23:05:49;4.10;;;3.80;;
15528;SDS011;7866;52.280;9.500;2023-05-07T23:10:52;4.10;;;3.80;;
15528;SDS011;7866;52.280;9.500;2023-05-07T23:15:53;4.30;;;4.00;;
15528;SDS011;7866;52.280;9.500;2023-05-07T23:20:55;4.30;;;4.00;;
15528;SDS011;7866;52.280;9.500;2023-05-07T23:25:58;3.90;;;3.60;;
15528;SDS011;7866;52.280;9.500;2023-05-07T23:31:00;4.17;;;3.87;;
15528;SDS011;7866;52.280;9.500;2023-05-07T23:36:02;4.80;;;4.40;;
15528;SDS011;7866;52.280;9.500;2023-05-07T23:41:06;4.37;;;4.07;;
15528;SDS011;7866;52.280;9.500;2023-05-07T23:46:08;4.57;;;4.27;;
15528;SDS011;7866;52.280;9.500;2023-05-07T23:51:10;4.20;;;3.90;;
15528;SDS011;7866;52.280;9.500;2023-05-07T23:56:13;4.30;;;4.00;;
